Time;durP1;ratioP1;P1;durP2;ratioP2;P2;SDS_P1;SDS_P2;PMS_P1;PMS_P2;Temp;Humidity;BMP_temperature;BMP_pressure;BME280_temperature;BME280_humidity;BME280_pressure;Samples;Min_cycle;Max_cycle;Signal;HPM_P1;HPM_P2
2022/11/27 00:00:39;;;;;;;18.13;7.07;;;6.10;99.90;;;;;;5054467;28;20083;-53
2022/11/27 00:03:04;;;;;;;20.05;8.00;;;6.20;99.90;;;;;;5048598;28;20041;-52
2022/11/27 00:05:30;;;;;;;17.73;7.70;;;6.10;99.90;;;;;;5023427;28;20057;-51
2022/11/27 00:07:56;;;;;;;18.33;7.57;;;6.10;99.90;;;;;;5045506;28;20071;-52
2022/11/27 00:10:21;;;;;;;18.85;6.70;;;6.10;99.90;;;;;;5052863;28;20040;-51
2022/11/27 00:12:47;;;;;;;15.77;7.10;;;6.00;99.90;;;;;;5053214;28;20045;-51
2022/11/27 00:15:12;;;;;;;15.20;6.47;;;6.00;99.90;;;;;;5053573;28;20041;-51
2022/11/27 00:17:38;;;;;;;15.73;6.90;;;5.90;99.90;;;;;;5053165;28;20041;-52
2022/11/27 00:20:04;;;;;;;20.55;7.40;;;5.90;99.90;;;;;;5053563;28;20033;-52
2022/11/27 00:22:30;;;;;;;22.95;6.72;;;5.90;99.90;;;;;;5053203;28;20106;-54
2022/11/27 00:24:55;;;;;;;17.77;6.80;;;5.80;99.90;;;;;;5053263;28;20048;-51
2022/11/27 00:27:21;;;;;;;19.05;7.53;;;5.80;99.90;;;;;;5054409;28;20515;-52
2022/11/27 00:29:47;;;;;;;23.65;7.97;;;5.80;99.90;;;;;;5046660;28;20099;-51
2022/11/27 00:32:12;;;;;;;18.88;6.93;;;5.80;99.90;;;;;;5036495;28;20053;-53
2022/11/27 00:34:38;;;;;;;17.45;6.82;;;5.80;99.90;;;;;;5038414;28;21582;-52
2022/11/27 00:37:03;;;;;;;19.38;7.72;;;5.70;99.90;;;;;;5033994;28;20045;-52
2022/11/27 00:39:29;;;;;;;16.13;7.38;;;5.70;99.90;;;;;;5018115;28;20038;-52
2022/11/27 00:41:55;;;;;;;19.52;6.82;;;5.70;99.90;;;;;;5031975;28;20060;-55
2022/11/27 00:44:21;;;;;;;16.75;7.13;;;5.70;99.90;;;;;;5040951;28;20045;-56
2022/11/27 00:46:46;;;;;;;18.00;6.60;;;5.70;99.90;;;;;;5037334;28;20136;-53
2022/11/27 00:49:13;;;;;;;15.20;6.72;;;5.70;99.90;;;;;;5045553;28;20470;-51
2022/11/27 00:51:40;;;;;;;18.00;7.47;;;5.70;99.90;;;;;;5041782;28;20033;-52
2022/11/27 00:54:06;;;;;;;15.20;6.80;;;5.70;99.90;;;;;;5040478;28;20647;-54
2022/11/27 00:56:34;;;;;;;14.65;7.00;;;5.70;99.90;;;;;;5043855;28;20041;-54
2022/11/27 00:59:00;;;;;;;16.58;7.15;;;5.60;99.90;;;;;;5041700;28;20102;-55
2022/11/27 01:01:29;;;;;;;15.98;6.88;;;5.60;99.90;;;;;;5040799;28;20118;-52
2022/11/27 01:03:57;;;;;;;17.13;7.20;;;5.70;99.90;;;;;;5041481;28;20044;-54
2022/11/27 01:06:23;;;;;;;13.15;6.80;;;5.60;99.90;;;;;;5049348;28;20076;-55
2022/11/27 01:08:49;;;;;;;18.80;6.95;;;5.60;99.90;;;;;;5036242;28;20037;-53
2022/11/27 01:11:20;;;;;;;15.27;6.95;;;5.60;99.90;;;;;;5033927;28;20080;-53
2022/11/27 01:13:47;;;;;;;16.38;7.07;;;5.60;99.90;;;;;;5048839;28;20090;-52
2022/11/27 01:16:18;;;;;;;15.90;7.45;;;5.50;99.90;;;;;;5036840;28;20068;-52
2022/11/27 01:18:46;;;;;;;19.38;7.63;;;5.50;99.90;;;;;;5048630;28;20494;-53
2022/11/27 01:21:13;;;;;;;12.20;6.87;;;5.50;99.90;;;;;;5046222;28;20055;-52
2022/11/27 01:23:39;;;;;;;18.15;7.50;;;5.40;99.90;;;;;;5038813;28;20500;-52
2022/11/27 01:26:06;;;;;;;22.85;7.43;;;5.40;99.90;;;;;;5037543;28;20057;-54
2022/11/27 01:28:33;;;;;;;16.88;6.90;;;5.40;99.90;;;;;;5034930;28;20640;-56
2022/11/27 01:31:04;;;;;;;16.25;7.22;;;5.30;99.90;;;;;;5017658;28;20045;-55
2022/11/27 01:33:29;;;;;;;12.30;6.53;;;5.40;99.90;;;;;;5033973;28;20061;-54
2022/11/27 01:35:57;;;;;;;16.15;7.93;;;5.30;99.90;;;;;;5012596;28;20048;-56
2022/11/27 01:38:23;;;;;;;22.33;7.63;;;5.30;99.90;;;;;;5032670;28;20099;-54
2022/11/27 01:40:57;;;;;;;17.90;6.80;;;5.30;99.90;;;;;;5036127;28;20340;-52
2022/11/27 01:43:55;;;;;;;16.55;7.22;;;5.20;99.90;;;;;;5030918;28;20403;-52
2022/11/27 01:46:42;;;;;;;17.88;7.70;;;5.20;99.90;;;;;;5012199;28;20106;-52
2022/11/27 01:49:08;;;;;;;17.17;7.00;;;5.20;99.90;;;;;;5039158;28;20037;-54
2022/11/27 01:51:43;;;;;;;14.32;7.20;;;5.20;99.90;;;;;;5037316;28;22970;-54
2022/11/27 01:54:10;;;;;;;16.42;7.28;;;;;;;;;;5037304;28;20045;-55
2022/11/27 01:56:37;;;;;;;17.85;7.72;;;5.10;99.90;;;;;;5033371;28;20415;-56
2022/11/27 01:59:03;;;;;;;13.67;7.50;;;5.10;99.90;;;;;;5032197;28;20056;-52
2022/11/27 02:01:29;;;;;;;19.30;8.10;;;5.10;99.90;;;;;;5011862;28;20041;-55
2022/11/27 02:03:58;;;;;;;16.40;7.53;;;5.10;99.90;;;;;;5028486;28;20037;-52
2022/11/27 02:06:24;;;;;;;20.20;7.85;;;5.00;99.90;;;;;;5030523;28;20037;-54
2022/11/27 02:08:51;;;;;;;14.82;7.10;;;5.10;99.90;;;;;;5032941;28;20402;-54
2022/11/27 02:11:37;;;;;;;19.15;7.50;;;5.10;99.90;;;;;;5036795;28;20072;-54
2022/11/27 02:14:16;;;;;;;19.58;7.57;;;5.10;99.90;;;;;;5039754;28;20072;-53
2022/11/27 02:17:00;;;;;;;16.85;7.57;;;5.10;99.90;;;;;;5040958;28;20056;-56
2022/11/27 02:19:48;;;;;;;12.00;7.05;;;5.00;99.90;;;;;;5039326;28;20487;-54
2022/11/27 02:22:33;;;;;;;15.75;6.43;;;5.00;99.90;;;;;;5043034;28;20064;-52
2022/11/27 02:25:19;;;;;;;19.10;7.45;;;5.10;99.90;;;;;;5038844;28;20086;-55
2022/11/27 02:28:19;;;;;;;13.75;6.97;;;5.00;99.90;;;;;;5017377;28;20056;-52
2022/11/27 02:30:58;;;;;;;20.70;6.57;;;5.10;99.90;;;;;;5032775;28;20132;-53
2022/11/27 02:33:25;;;;;;;15.98;7.53;;;5.00;99.90;;;;;;5033281;28;20511;-56
2022/11/27 02:35:59;;;;;;;16.52;6.80;;;5.00;99.90;;;;;;5033072;28;20038;-54
2022/11/27 02:38:39;;;;;;;16.00;7.20;;;5.10;99.90;;;;;;5019093;28;20052;-56
2022/11/27 02:41:24;;;;;;;14.23;7.28;;;5.00;99.90;;;;;;5037470;28;20041;-53
2022/11/27 02:43:51;;;;;;;17.70;6.63;;;5.00;99.90;;;;;;5038551;28;20040;-52
2022/11/27 02:46:19;;;;;;;21.02;7.00;;;5.00;99.90;;;;;;5015619;28;20045;-56
2022/11/27 02:48:47;;;;;;;;;;;5.00;99.90;;;;;;5038234;28;20169;-56
2022/11/27 02:51:13;;;;;;;;;;;5.00;99.90;;;;;;5015485;28;19925;-56
2022/11/27 02:53:45;;;;;;;12.63;6.10;;;5.00;99.90;;;;;;5035533;28;19921;-53
2022/11/27 02:56:17;;;;;;;12.63;5.68;;;5.00;99.90;;;;;;5024936;28;20045;-56
2022/11/27 02:58:46;;;;;;;18.05;6.78;;;5.00;99.90;;;;;;5042321;28;20064;-55
2022/11/27 03:01:14;;;;;;;18.10;6.78;;;5.10;99.90;;;;;;5017510;28;20076;-52
2022/11/27 03:03:44;;;;;;;16.77;6.05;;;5.10;99.90;;;;;;5035357;28;20107;-54
2022/11/27 03:06:14;;;;;;;13.25;5.40;;;5.10;99.90;;;;;;5030537;28;20045;-56
2022/11/27 03:08:49;;;;;;;20.40;7.13;;;5.10;99.90;;;;;;5033660;28;20052;-53
2022/11/27 03:11:16;;;;;;;17.77;6.05;;;5.10;99.90;;;;;;5037328;28;20045;-54
2022/11/27 03:13:46;;;;;;;16.48;6.25;;;5.00;99.90;;;;;;5033299;28;20191;-54
2022/11/27 03:16:12;;;;;;;14.30;6.32;;;5.10;99.90;;;;;;5031799;28;20495;-54
2022/11/27 03:19:11;;;;;;;16.40;6.65;;;5.10;99.90;;;;;;5038591;28;20094;-53
2022/11/27 03:21:44;;;;;;;16.30;5.55;;;5.10;99.90;;;;;;5024580;28;20049;-52
2022/11/27 03:24:11;;;;;;;14.30;5.35;;;5.10;99.90;;;;;;5035430;28;20052;-52
2022/11/27 03:26:38;;;;;;;19.27;6.53;;;5.10;99.90;;;;;;5031679;28;20175;-53
2022/11/27 03:29:08;;;;;;;14.23;6.15;;;5.10;99.90;;;;;;5031049;28;20511;-52
2022/11/27 03:31:34;;;;;;;15.05;5.95;;;5.20;99.90;;;;;;5032549;28;20433;-54
2022/11/27 03:34:01;;;;;;;15.27;5.75;;;5.20;99.90;;;;;;5038407;28;20538;-52
2022/11/27 03:36:26;;;;;;;14.55;5.35;;;5.10;99.90;;;;;;5031230;28;20112;-51
2022/11/27 03:38:54;;;;;;;13.15;5.22;;;5.20;99.90;;;;;;5034732;28;20110;-54
2022/11/27 03:41:31;;;;;;;17.95;5.30;;;5.20;99.90;;;;;;5033089;28;20125;-56
2022/11/27 03:44:09;;;;;;;15.18;5.57;;;5.20;99.90;;;;;;5034921;28;20052;-53
2022/11/27 03:47:05;;;;;;;17.35;5.45;;;5.20;99.90;;;;;;5031891;28;20638;-56
2022/11/27 03:49:31;;;;;;;13.57;5.13;;;5.20;99.90;;;;;;5013387;28;20099;-55
2022/11/27 03:52:08;;;;;;;13.52;5.72;;;5.20;99.90;;;;;;5035186;28;20041;-53
2022/11/27 03:54:49;;;;;;;14.30;5.20;;;5.20;99.90;;;;;;5038660;28;20645;-54
2022/11/27 03:57:28;;;;;;;14.98;5.28;;;5.20;99.90;;;;;;5049972;28;20146;-55
2022/11/27 03:59:57;;;;;;;13.32;5.05;;;5.20;99.90;;;;;;5045812;28;20123;-52
2022/11/27 04:02:44;;;;;;;12.80;5.20;;;5.20;99.90;;;;;;5051435;28;20488;-52
2022/11/27 04:05:11;;;;;;;14.35;5.40;;;5.20;99.90;;;;;;5043081;28;20408;-53
2022/11/27 04:07:37;;;;;;;11.75;5.05;;;5.20;99.90;;;;;;5039959;28;20548;-53
2022/11/27 04:10:04;;;;;;;16.42;4.97;;;5.30;99.90;;;;;;5046253;28;20033;-52
2022/11/27 04:12:29;;;;;;;17.27;5.18;;;5.30;99.90;;;;;;5037457;28;20171;-52
2022/11/27 04:14:55;;;;;;;12.20;4.65;;;5.30;99.90;;;;;;5036815;28;20128;-53
2022/11/27 04:17:20;;;;;;;13.57;5.30;;;5.30;99.90;;;;;;5021080;28;20143;-55
2022/11/27 04:19:49;;;;;;;11.73;5.32;;;5.30;99.90;;;;;;5042561;28;20141;-55
2022/11/27 04:22:14;;;;;;;10.38;4.50;;;5.30;99.90;;;;;;5042653;28;20119;-54
2022/11/27 04:24:40;;;;;;;11.32;4.75;;;5.30;99.90;;;;;;5026844;28;20123;-51
2022/11/27 04:27:06;;;;;;;11.52;4.72;;;5.30;99.90;;;;;;5019850;28;20048;-54
2022/11/27 04:29:31;;;;;;;9.82;4.82;;;5.30;99.90;;;;;;5030367;28;20794;-52
2022/11/27 04:31:57;;;;;;;12.93;4.97;;;5.30;99.90;;;;;;5033006;28;20036;-52
2022/11/27 04:34:22;;;;;;;13.35;4.60;;;5.30;99.90;;;;;;5016919;28;20057;-53
2022/11/27 04:36:48;;;;;;;11.48;4.20;;;5.30;99.90;;;;;;5032648;28;19921;-55
2022/11/27 04:39:14;;;;;;;12.05;4.88;;;5.30;99.90;;;;;;5035162;28;20038;-52
2022/11/27 04:41:39;;;;;;;12.27;4.65;;;5.30;99.90;;;;;;5036327;28;20484;-52
2022/11/27 04:44:05;;;;;;;12.35;4.47;;;5.30;99.90;;;;;;5032937;28;20045;-54
2022/11/27 04:46:31;;;;;;;13.23;4.70;;;5.30;99.90;;;;;;5030032;28;20143;-57
2022/11/27 04:48:56;;;;;;;13.77;4.32;;;5.30;99.90;;;;;;5033494;28;20030;-56
2022/11/27 04:51:22;;;;;;;12.70;4.55;;;5.30;99.90;;;;;;5030306;28;20065;-57
2022/11/27 04:53:48;;;;;;;12.07;4.60;;;5.30;99.90;;;;;;5028611;28;20045;-55
2022/11/27 04:56:13;;;;;;;13.18;4.82;;;5.40;99.90;;;;;;5012366;28;20122;-51
2022/11/27 04:58:39;;;;;;;11.63;4.22;;;5.40;99.90;;;;;;5035346;28;20499;-53
2022/11/27 05:01:07;;;;;;;12.98;4.45;;;5.40;99.90;;;;;;5039937;28;20033;-53
2022/11/27 05:03:32;;;;;;;13.43;4.90;;;5.40;99.90;;;;;;5035515;28;20348;-55
2022/11/27 05:05:58;;;;;;;13.65;4.68;;;5.40;99.90;;;;;;5032921;28;20044;-54
2022/11/27 05:08:24;;;;;;;11.77;4.20;;;5.40;99.90;;;;;;5035603;28;20037;-52
2022/11/27 05:11:05;;;;;;;10.38;4.03;;;5.40;99.90;;;;;;5038948;28;20049;-55
2022/11/27 05:13:31;;;;;;;17.30;4.97;;;5.40;99.90;;;;;;5036954;28;20776;-54
2022/11/27 05:15:57;;;;;;;12.43;4.60;;;5.40;99.90;;;;;;5036441;28;20064;-53
2022/11/27 05:18:23;;;;;;;12.43;4.65;;;5.40;99.90;;;;;;5036047;28;20109;-52
2022/11/27 05:21:06;;;;;;;11.60;5.10;;;5.40;99.90;;;;;;5037937;28;20037;-55
2022/11/27 05:23:33;;;;;;;17.80;5.22;;;5.40;99.90;;;;;;5034355;28;20041;-51
2022/11/27 05:25:59;;;;;;;14.50;4.60;;;5.40;99.90;;;;;;5036652;28;20051;-55
2022/11/27 05:28:25;;;;;;;14.77;4.47;;;5.30;99.90;;;;;;5038224;28;20041;-53
2022/11/27 05:30:51;;;;;;;11.07;4.63;;;5.30;99.90;;;;;;5038023;28;20033;-54
2022/11/27 05:33:17;;;;;;;13.63;4.85;;;5.30;99.90;;;;;;5030541;28;20158;-54
2022/11/27 05:35:44;;;;;;;12.32;4.82;;;5.30;99.90;;;;;;5031632;28;20128;-52
2022/11/27 05:38:10;;;;;;;9.45;4.85;;;5.30;99.90;;;;;;5030484;28;20047;-54
2022/11/27 05:40:37;;;;;;;10.63;4.93;;;5.30;99.90;;;;;;5032238;28;20040;-55
2022/11/27 05:43:02;;;;;;;11.85;4.70;;;5.30;99.90;;;;;;5032120;28;20045;-52
2022/11/27 05:45:28;;;;;;;9.48;4.28;;;5.30;99.90;;;;;;5032729;28;20676;-52
2022/11/27 05:47:54;;;;;;;8.38;4.47;;;5.30;99.90;;;;;;5035112;28;20482;-56
2022/11/27 05:50:20;;;;;;;11.27;5.15;;;5.30;99.90;;;;;;5030448;28;20476;-55
2022/11/27 05:52:45;;;;;;;12.00;4.25;;;5.30;99.90;;;;;;5031876;28;20052;-52
2022/11/27 05:55:11;;;;;;;10.68;4.93;;;5.30;99.90;;;;;;5030167;28;20483;-55
2022/11/27 05:57:37;;;;;;;9.10;4.28;;;5.30;99.90;;;;;;5033413;28;20041;-53
2022/11/27 06:00:04;;;;;;;11.15;4.90;;;5.30;99.90;;;;;;5039140;28;20036;-55
2022/11/27 06:02:31;;;;;;;9.15;4.45;;;5.30;99.90;;;;;;5013704;28;20086;-52
2022/11/27 06:04:56;;;;;;;10.88;4.60;;;5.30;99.90;;;;;;5032117;28;20055;-53
2022/11/27 06:07:22;;;;;;;12.93;4.38;;;5.30;99.90;;;;;;5028724;28;20041;-55
2022/11/27 06:09:48;;;;;;;9.35;4.63;;;5.30;99.90;;;;;;5034793;28;20403;-54
2022/11/27 06:12:13;;;;;;;14.15;4.93;;;5.30;99.90;;;;;;5031419;28;20073;-51
2022/11/27 06:14:39;;;;;;;9.93;5.43;;;5.30;99.90;;;;;;5033433;28;20033;-52
2022/11/27 06:17:04;;;;;;;8.45;4.95;;;5.30;99.90;;;;;;5035968;28;20037;-55
2022/11/27 06:19:30;;;;;;;9.88;5.20;;;5.30;99.90;;;;;;5037363;28;20037;-55
2022/11/27 06:21:56;;;;;;;9.82;4.60;;;5.30;99.90;;;;;;5035801;28;20042;-57
2022/11/27 06:24:21;;;;;;;10.82;4.85;;;5.30;99.90;;;;;;5041645;28;20041;-55
2022/11/27 06:26:47;;;;;;;9.68;4.80;;;5.30;99.90;;;;;;5039297;28;20037;-53
2022/11/27 06:29:12;;;;;;;9.32;4.95;;;5.30;99.90;;;;;;5043928;28;20475;-56
2022/11/27 06:31:39;;;;;;;10.00;4.90;;;5.30;99.90;;;;;;5043066;28;20094;-56
2022/11/27 06:34:05;;;;;;;10.43;5.00;;;5.30;99.90;;;;;;5042699;28;20091;-56
2022/11/27 06:36:36;;;;;;;9.32;4.43;;;5.30;99.90;;;;;;5037345;28;20068;-53
2022/11/27 06:39:04;;;;;;;8.80;5.47;;;5.30;99.90;;;;;;5031976;28;20418;-55
2022/11/27 06:41:30;;;;;;;8.07;4.82;;;5.30;99.90;;;;;;5046417;28;20071;-53
2022/11/27 06:43:58;;;;;;;8.15;4.78;;;5.40;99.90;;;;;;5047625;28;20091;-51
2022/11/27 06:46:24;;;;;;;14.07;5.85;;;5.40;99.90;;;;;;5037176;28;20144;-52
2022/11/27 06:48:52;;;;;;;10.57;4.80;;;5.40;99.90;;;;;;5038299;28;20042;-50
2022/11/27 06:51:20;;;;;;;9.60;4.85;;;5.40;99.90;;;;;;5040873;28;20430;-52
2022/11/27 06:53:46;;;;;;;10.60;4.95;;;5.40;99.90;;;;;;5035577;28;20037;-54
2022/11/27 06:56:15;;;;;;;12.05;5.20;;;5.40;99.90;;;;;;5031904;28;20553;-51
2022/11/27 06:58:41;;;;;;;9.25;4.72;;;5.30;99.90;;;;;;5031388;28;20041;-51
2022/11/27 07:01:12;;;;;;;12.75;5.20;;;5.30;99.90;;;;;;5049624;28;20072;-52
2022/11/27 07:03:38;;;;;;;8.35;4.82;;;5.30;99.90;;;;;;5036898;28;20056;-55
2022/11/27 07:06:06;;;;;;;12.73;5.82;;;5.30;99.90;;;;;;5024927;28;20091;-52
2022/11/27 07:08:33;;;;;;;13.55;6.15;;;5.40;99.90;;;;;;5035166;28;20045;-56
2022/11/27 07:11:15;;;;;;;12.77;5.40;;;5.40;99.90;;;;;;5039442;28;20502;-51
2022/11/27 07:13:41;;;;;;;12.57;5.72;;;5.40;99.90;;;;;;5035984;28;20045;-55
2022/11/27 07:16:09;;;;;;;9.68;5.28;;;5.40;99.90;;;;;;5044622;28;20044;-55
2022/11/27 07:18:40;;;;;;;12.02;5.93;;;5.40;99.90;;;;;;5035549;28;20040;-53
2022/11/27 07:21:06;;;;;;;11.57;5.60;;;5.40;99.90;;;;;;5044172;28;20076;-52
2022/11/27 07:23:32;;;;;;;16.25;5.65;;;5.40;99.90;;;;;;5035447;28;20065;-52
2022/11/27 07:25:58;;;;;;;11.77;5.63;;;5.40;99.90;;;;;;5019376;28;20041;-56
2022/11/27 07:28:24;;;;;;;10.68;5.88;;;5.40;99.90;;;;;;5016021;28;20532;-54
2022/11/27 07:30:57;;;;;;;10.52;5.63;;;5.40;99.90;;;;;;5039109;28;20033;-51
2022/11/27 07:33:23;;;;;;;13.13;6.05;;;5.40;99.90;;;;;;5039002;28;20511;-54
2022/11/27 07:35:49;;;;;;;11.68;5.75;;;5.50;99.90;;;;;;5034940;28;20693;-54
2022/11/27 07:38:14;;;;;;;10.98;5.65;;;5.50;99.90;;;;;;5033108;28;20510;-52
2022/11/27 07:40:40;;;;;;;10.48;5.25;;;5.50;99.90;;;;;;5035673;28;20045;-53
2022/11/27 07:43:06;;;;;;;13.55;5.82;;;5.50;99.90;;;;;;5036294;28;20128;-52
2022/11/27 07:45:31;;;;;;;10.68;5.60;;;5.50;99.90;;;;;;5037343;28;20055;-51
2022/11/27 07:47:57;;;;;;;9.38;6.00;;;5.60;99.90;;;;;;5031054;28;20168;-50
2022/11/27 07:50:22;;;;;;;11.77;5.53;;;5.60;99.90;;;;;;5033101;28;20438;-55
2022/11/27 07:52:48;;;;;;;9.43;5.57;;;5.60;99.90;;;;;;5031393;28;20080;-52
2022/11/27 07:55:14;;;;;;;11.30;6.10;;;5.60;99.90;;;;;;5031597;28;20104;-51
2022/11/27 07:57:41;;;;;;;10.88;6.45;;;5.60;99.90;;;;;;5031930;28;20048;-53
2022/11/27 08:00:07;;;;;;;11.20;5.78;;;5.60;99.90;;;;;;5035432;28;20092;-51
2022/11/27 08:02:32;;;;;;;9.55;6.20;;;5.60;99.90;;;;;;5035533;28;20049;-51
2022/11/27 08:04:58;;;;;;;12.07;6.35;;;5.70;99.90;;;;;;5031093;28;20067;-52
2022/11/27 08:07:27;;;;;;;10.73;6.25;;;5.70;99.90;;;;;;5034554;28;20045;-51
2022/11/27 08:09:53;;;;;;;15.40;6.25;;;5.70;99.90;;;;;;5035695;28;20406;-54
2022/11/27 08:12:19;;;;;;;10.82;6.63;;;5.70;99.90;;;;;;5038299;28;20048;-52
2022/11/27 08:14:44;;;;;;;9.85;6.25;;;5.80;99.90;;;;;;5035410;28;20432;-54
2022/11/27 08:17:13;;;;;;;11.65;5.97;;;5.80;99.90;;;;;;5039967;28;20029;-51
2022/11/27 08:19:38;;;;;;;10.57;6.00;;;5.90;99.90;;;;;;5042694;28;20395;-52
2022/11/27 08:22:05;;;;;;;10.82;6.28;;;5.90;99.90;;;;;;5040937;28;20029;-51
2022/11/27 08:24:32;;;;;;;10.38;6.13;;;5.90;99.90;;;;;;5038257;28;20052;-52
2022/11/27 08:26:57;;;;;;;14.40;6.25;;;6.00;99.90;;;;;;5034367;28;20080;-51
2022/11/27 08:29:25;;;;;;;13.20;6.50;;;6.00;99.90;;;;;;5036579;28;20076;-54
2022/11/27 08:31:50;;;;;;;10.50;5.82;;;6.00;99.90;;;;;;5035219;28;20356;-52
2022/11/27 08:34:16;;;;;;;10.80;5.95;;;6.00;99.90;;;;;;5035417;28;20466;-52
2022/11/27 08:36:41;;;;;;;11.70;6.15;;;6.00;99.90;;;;;;5034851;28;20091;-54
2022/11/27 08:39:07;;;;;;;11.48;6.43;;;6.00;99.90;;;;;;5040933;28;20045;-54
2022/11/27 08:41:33;;;;;;;10.45;5.30;;;6.10;99.90;;;;;;5035622;28;20380;-53
2022/11/27 08:43:58;;;;;;;11.00;6.22;;;6.10;99.90;;;;;;5033049;28;20065;-52
2022/11/27 08:46:24;;;;;;;8.82;6.28;;;6.10;99.90;;;;;;5035075;28;20355;-54
2022/11/27 08:48:49;;;;;;;12.60;5.93;;;6.10;99.90;;;;;;5036378;28;20041;-56
2022/11/27 08:51:15;;;;;;;11.25;5.88;;;6.20;99.90;;;;;;5033972;28;20049;-55
2022/11/27 08:53:44;;;;;;;11.48;6.20;;;6.20;99.90;;;;;;5032326;28;20253;-56
2022/11/27 08:56:16;;;;;;;14.38;6.72;;;6.20;99.90;;;;;;5041594;28;20391;-55
2022/11/27 08:58:42;;;;;;;12.68;6.25;;;6.30;99.90;;;;;;5053449;28;20048;-51
2022/11/27 09:01:16;;;;;;;17.00;6.32;;;6.20;99.90;;;;;;5045092;28;20048;-52
2022/11/27 09:03:42;;;;;;;12.27;6.07;;;6.30;99.90;;;;;;5036892;28;20045;-55
2022/11/27 09:06:17;;;;;;;9.73;6.22;;;6.30;99.90;;;;;;5035166;28;20083;-54
2022/11/27 09:08:43;;;;;;;9.73;6.82;;;6.30;99.90;;;;;;5020273;28;20041;-55
2022/11/27 09:11:10;;;;;;;13.05;6.07;;;6.30;99.90;;;;;;5040269;28;20094;-52
2022/11/27 09:13:38;;;;;;;12.20;6.25;;;6.30;99.90;;;;;;5040844;28;20060;-54
2022/11/27 09:16:05;;;;;;;12.20;6.40;;;6.30;99.90;;;;;;5040289;28;20098;-54
2022/11/27 09:18:31;;;;;;;13.65;6.47;;;6.30;99.90;;;;;;5042606;28;20412;-52
2022/11/27 09:21:26;;;;;;;13.35;6.40;;;6.30;99.90;;;;;;5039355;28;20049;-52
2022/11/27 09:23:53;;;;;;;14.77;6.55;;;6.30;99.90;;;;;;5038668;28;20161;-51
2022/11/27 09:26:19;;;;;;;13.32;6.63;;;6.30;99.90;;;;;;5041700;28;20064;-53
2022/11/27 09:28:44;;;;;;;8.77;6.35;;;6.30;99.90;;;;;;5028127;28;20605;-51
2022/11/27 09:31:12;;;;;;;11.07;6.70;;;6.30;99.90;;;;;;5033980;28;20033;-56
2022/11/27 09:33:39;;;;;;;15.45;6.93;;;6.20;99.90;;;;;;5036911;28;20076;-53
2022/11/27 09:36:14;;;;;;;11.95;6.45;;;6.20;99.90;;;;;;5033795;28;20731;-51
2022/11/27 09:38:41;;;;;;;10.88;6.55;;;6.30;99.90;;;;;;5035624;28;21358;-50
2022/11/27 09:41:10;;;;;;;13.98;6.75;;;6.20;99.90;;;;;;5033929;28;20041;-53
2022/11/27 09:43:44;;;;;;;12.55;6.70;;;6.20;99.90;;;;;;5029808;28;20059;-54
2022/11/27 09:46:18;;;;;;;11.82;6.70;;;6.20;99.90;;;;;;5033613;28;20037;-52
2022/11/27 09:48:47;;;;;;;12.50;7.13;;;6.20;99.90;;;;;;5032631;28;20045;-52
2022/11/27 09:51:34;;;;;;;11.80;6.85;;;6.20;99.90;;;;;;5091490;27;20517;-54
2022/11/27 09:54:14;;;;;;;10.93;6.25;;;6.20;99.90;;;;;;5087825;28;20054;-51
2022/11/27 09:56:44;;;;;;;12.20;6.82;;;6.20;99.90;;;;;;5086089;28;20078;-54
2022/11/27 09:59:19;;;;;;;15.65;7.90;;;6.20;99.90;;;;;;5082064;28;20121;-53
2022/11/27 10:01:44;;;;;;;17.50;7.32;;;6.20;99.90;;;;;;5069649;28;20054;-52
2022/11/27 10:04:14;;;;;;;13.77;6.90;;;6.20;99.90;;;;;;5078916;28;20048;-56
2022/11/27 10:06:58;;;;;;;12.73;7.10;;;6.20;99.90;;;;;;5074327;28;20048;-52
2022/11/27 10:09:40;;;;;;;11.68;6.63;;;6.20;99.90;;;;;;5069963;28;20040;-55
2022/11/27 10:12:15;;;;;;;12.18;7.10;;;6.10;99.90;;;;;;5075208;28;20053;-53
2022/11/27 10:14:56;;;;;;;13.10;7.40;;;6.20;99.90;;;;;;5074820;28;20045;-55
2022/11/27 10:17:42;;;;;;;13.32;7.50;;;6.20;99.90;;;;;;5078363;28;20044;-54
2022/11/27 10:20:16;;;;;;;9.70;6.63;;;6.20;99.90;;;;;;5086902;28;20380;-52
2022/11/27 10:23:04;;;;;;;12.25;6.53;;;6.20;99.90;;;;;;5080957;28;20044;-53
2022/11/27 10:25:39;;;;;;;12.35;6.70;;;6.20;99.90;;;;;;5082631;28;20048;-51
2022/11/27 10:28:20;;;;;;;13.20;7.20;;;6.20;99.90;;;;;;5082630;28;20052;-56
2022/11/27 10:31:21;;;;;;;12.85;6.70;;;6.20;99.90;;;;;;5077629;28;20123;-51
2022/11/27 10:33:52;;;;;;;11.73;6.70;;;6.20;99.90;;;;;;5071016;28;20110;-53
2022/11/27 10:36:29;;;;;;;11.65;7.18;;;6.20;99.90;;;;;;5086853;28;20113;-55
2022/11/27 10:38:58;;;;;;;11.45;7.18;;;6.30;99.90;;;;;;5104927;28;20052;-53
2022/11/27 10:41:31;;;;;;;13.00;7.10;;;6.30;99.90;;;;;;5077469;28;20120;-52
2022/11/27 10:44:01;;;;;;;13.98;7.47;;;6.30;99.90;;;;;;5081016;28;20512;-52
2022/11/27 10:46:30;;;;;;;17.52;7.10;;;6.30;99.90;;;;;;5082715;28;20055;-51
2022/11/27 10:48:57;;;;;;;10.43;6.50;;;6.30;99.90;;;;;;5084712;28;20059;-52
2022/11/27 10:51:36;;;;;;;11.65;7.22;;;6.30;99.90;;;;;;5076986;28;20094;-52
2022/11/27 10:54:04;;;;;;;13.23;7.18;;;6.30;99.90;;;;;;5082140;28;20493;-56
2022/11/27 10:56:59;;;;;;;11.85;7.20;;;6.30;99.90;;;;;;5081747;28;20044;-52
2022/11/27 10:59:30;;;;;;;13.55;6.78;;;6.30;99.90;;;;;;5080856;28;20135;-54
2022/11/27 11:01:57;;;;;;;12.25;6.95;;;6.30;99.90;;;;;;5073931;28;20045;-55
2022/11/27 11:04:29;;;;;;;14.00;6.93;;;6.40;99.90;;;;;;5067606;28;20504;-54
2022/11/27 11:06:55;;;;;;;11.32;6.80;;;6.40;99.90;;;;;;5065133;28;20052;-53
2022/11/27 11:09:26;;;;;;;11.55;6.65;;;6.40;99.90;;;;;;5066584;28;20044;-52
2022/11/27 11:11:51;;;;;;;10.73;6.50;;;6.40;99.90;;;;;;5064675;28;20513;-52
2022/11/27 11:14:23;;;;;;;14.52;7.45;;;6.40;99.90;;;;;;5065264;28;20037;-52
2022/11/27 11:16:50;;;;;;;11.20;6.50;;;6.40;99.90;;;;;;5064530;28;20036;-52
2022/11/27 11:19:29;;;;;;;12.07;6.73;;;6.40;99.90;;;;;;5065724;28;20040;-53
2022/11/27 11:21:55;;;;;;;15.55;7.22;;;6.40;99.90;;;;;;5064521;28;20044;-51
2022/11/27 11:24:25;;;;;;;14.00;7.18;;;6.40;99.90;;;;;;5066874;28;20082;-54
2022/11/27 11:27:05;;;;;;;11.52;7.07;;;6.40;99.90;;;;;;5060898;28;22219;-55
2022/11/27 11:29:35;;;;;;;9.90;7.03;;;6.50;99.90;;;;;;5066825;28;20063;-56
2022/11/27 11:32:37;;;;;;;13.30;7.28;;;6.50;99.90;;;;;;5060834;28;20047;-53
2022/11/27 11:35:08;;;;;;;12.73;7.03;;;6.50;99.90;;;;;;5034046;28;20536;-55
2022/11/27 11:37:38;;;;;;;10.98;7.20;;;6.50;99.90;;;;;;5063550;28;20037;-54
2022/11/27 11:40:07;;;;;;;11.77;7.05;;;;;;;;;;5064555;28;20127;-53
2022/11/27 11:42:35;;;;;;;11.15;7.25;;;6.60;99.90;;;;;;5065476;28;20132;-57
2022/11/27 11:45:03;;;;;;;;;;;6.60;99.90;;;;;;5070269;28;20123;-54
2022/11/27 11:47:28;;;;;;;12.15;7.32;;;6.60;99.90;;;;;;5055506;28;19924;-52
2022/11/27 11:49:55;;;;;;;12.30;7.05;;;;;;;;;;5064933;28;20448;-50
2022/11/27 11:52:39;;;;;;;9.95;7.00;;;6.80;99.90;;;;;;5059507;28;20170;-54
2022/11/27 11:55:25;;;;;;;10.13;6.93;;;7.00;99.90;;;;;;5066005;28;20045;-56
2022/11/27 11:58:09;;;;;;;9.15;6.50;;;6.70;99.90;;;;;;5062878;28;20080;-54
2022/11/27 12:00:47;;;;;;;10.30;7.18;;;6.70;99.90;;;;;;5067597;28;20563;-53
2022/11/27 12:03:21;;;;;;;10.32;7.10;;;6.70;99.90;;;;;;5065046;28;20055;-53
2022/11/27 12:06:44;;;;;;;9.27;6.57;;;6.70;99.90;;;;;;5061376;28;20136;-51
2022/11/27 12:09:33;;;;;;;12.23;6.97;;;6.70;99.90;;;;;;4980461;28;20081;-54
2022/11/27 12:12:19;;;;;;;11.65;7.10;;;6.70;99.90;;;;;;5002590;28;20088;-53
2022/11/27 12:15:13;;;;;;;13.15;6.85;;;6.80;99.90;;;;;;4968152;28;20054;-51
2022/11/27 12:18:04;;;;;;;13.23;7.32;;;6.80;99.90;;;;;;4933037;28;20047;-53
2022/11/27 12:20:48;;;;;;;10.48;6.60;;;6.90;99.90;;;;;;4946615;28;20047;-53
2022/11/27 12:23:36;;;;;;;10.90;6.75;;;6.80;99.90;;;;;;4946598;28;20564;-54
2022/11/27 12:26:07;;;;;;;;;;;6.90;99.90;;;;;;4943080;28;20119;-51
2022/11/27 12:28:42;;;;;;;10.05;6.47;;;6.90;99.90;;;;;;4944860;28;20013;-55
2022/11/27 12:31:42;;;;;;;11.00;6.88;;;6.90;99.90;;;;;;4946873;28;20098;-52
2022/11/27 12:34:37;;;;;;;11.73;6.50;;;6.90;99.90;;;;;;4943620;28;20058;-52
2022/11/27 12:37:23;;;;;;;11.30;7.22;;;7.00;99.90;;;;;;4933138;29;20094;-50
2022/11/27 12:39:58;;;;;;;13.25;7.25;;;6.90;99.90;;;;;;4978155;28;20045;-54
2022/11/27 12:42:27;;;;;;;12.30;7.70;;;6.90;99.90;;;;;;5015833;28;20050;-53
2022/11/27 12:45:13;;;;;;;9.35;6.82;;;6.90;99.90;;;;;;5011133;28;20049;-53
2022/11/27 12:48:04;;;;;;;11.68;7.70;;;6.90;99.90;;;;;;5017470;28;20055;-55
2022/11/27 12:50:49;;;;;;;11.77;7.88;;;6.90;99.90;;;;;;5026116;28;20060;-51
2022/11/27 12:53:24;;;;;;;11.48;7.80;;;6.90;99.90;;;;;;5018847;28;20045;-53
2022/11/27 12:56:23;;;;;;;11.00;8.10;;;6.90;99.90;;;;;;5060945;28;20463;-54
2022/11/27 12:59:26;;;;;;;13.48;11.32;;;6.90;99.90;;;;;;5062430;28;20486;-51
2022/11/27 13:02:01;;;;;;;11.88;7.85;;;6.90;99.90;;;;;;5063880;28;20056;-53
2022/11/27 13:04:31;;;;;;;12.38;7.95;;;6.90;99.90;;;;;;5055511;28;20589;-51
2022/11/27 13:07:08;;;;;;;12.65;7.95;;;6.90;99.90;;;;;;5060968;28;20503;-53
2022/11/27 13:09:38;;;;;;;15.73;8.30;;;6.90;99.90;;;;;;5062867;28;20040;-54